Currently 91°F in Pinon Hills, California, USA
91°F
93°F / 64°F
calm
0.00"
Sunday, July 5, 2020 4:50 PM PDT

Pinon Hills, California Weather Summary
Last 36 Hours

Temperature Winds Hourly Humidity Dewpoint
Time Report Norm Report Norm Max Gusts Precip. Rpt. Norm Rpt. Norm Pressure
1Sun 04:50 PM  91.0°F  88°F  calm  5 mph  none  0.00"  9%  18%  22°F  38°F  30.09"
2Sun 04:30 PM  92.7°F  89°F  calm  4 mph  none  ----  7%  18%  17°F  38°F  30.10"
Sun 04:00 PM  92.0°F  89°F  calm  4 mph  none  0.00"  7%  16%  17°F  36°F  30.11"
Sun 03:00 PM  91.7°F  89°F  calm  3 mph  11 mph  0.00"  7%  16%  17°F  35°F  30.13"
Sun 02:00 PM  89.7°F  89°F  calm  3 mph  none  0.00"  8%  16%  19°F  35°F  30.14"
Sun 01:00 PM  88.6°F  88°F  calm  2 mph  10 mph  0.00"  9%  16%  21°F  35°F  30.16"
Sun 12:00 PM  85.8°F  86°F  2 mph NW  2 mph  10 mph  0.00"  11%  17%  22°F  35°F  30.18"
Sun 11:00 AM  83.8°F  84°F  calm  2 mph  11 mph  0.00"  12%  19%  24°F  37°F  30.18"
Sun 10:00 AM  81.2°F  82°F  6 mph SE  2 mph  10 mph  0.00"  14%  22%  25°F  38°F  30.18"
Sun 09:00 AM  78.7°F  80°F  4 mph SE  2 mph  10 mph  0.00"  16%  24%  26°F  38°F  30.19"
Sun 08:00 AM  75.7°F  77°F  6 mph NW  2 mph  10 mph  0.00"  17%  26%  26°F  38°F  30.19"
Sun 07:00 AM  70.0°F  72°F  2 mph W  1 mph  5 mph  0.00"  23%  30%  29°F  37°F  30.18"
Sun 06:00 AM  64.0°F  67°F  1 mph SW  2 mph  8 mph  0.00"  25%  32%  26°F  35°F  30.18"
3Sun 05:53 AM  63.9°F  67°F  1 mph SW  2 mph  6 mph  ----  26%  32%  26°F  35°F  30.17"
Sun 05:00 AM  64.6°F  67°F  3 mph SW  2 mph  6 mph  0.00"  30%  33%  31°F  36°F  30.17"
Sun 04:00 AM  67.3°F  67°F  4 mph SW  2 mph  7 mph  0.00"  28%  33%  32°F  36°F  30.16"
Sun 03:00 AM  68.3°F  68°F  3 mph SW  2 mph  7 mph  0.00"  24%  33%  29°F  36°F  30.16"
Sun 02:00 AM  70.8°F  69°F  3 mph SW  2 mph  7 mph  0.00"  28%  32%  35°F  37°F  30.17"
Sun 01:00 AM  69.7°F  70°F  2 mph W  2 mph  7 mph  0.00"  36%  32%  40°F  38°F  30.18"
Sun 12:00 AM  70.4°F  71°F  4 mph SW  2 mph  8 mph  0.00"  37%  32%  42°F  39°F  30.19"
Sat 11:00 PM  73.7°F  72°F  4 mph W  2 mph  7 mph  0.00"  28%  33%  38°F  40°F  30.19"
Sat 10:00 PM  71.8°F  74°F  2 mph SW  2 mph  5 mph  0.00"  37%  31%  43°F  40°F  30.18"
Sat 09:00 PM  73.0°F  77°F  calm  3 mph  8 mph  0.00"  34%  27%  42°F  39°F  30.16"
Sat 08:00 PM  79.3°F  80°F  2 mph NW  4 mph  14 mph  0.00"  26%  23%  40°F  38°F  30.15"
Sat 07:00 PM  83.6°F  84°F  8 mph S  5 mph  17 mph  0.00"  21%  20%  39°F  38°F  30.15"
Sat 06:00 PM  86.0°F  87°F  7 mph NW  5 mph  18 mph  0.00"  20%  19%  38°F  37°F  30.14"
Sat 05:00 PM  88.3°F  88°F  5 mph E  4 mph  19 mph  0.00"  18%  17%  38°F  36°F  30.15"
Sat 04:00 PM  88.8°F  89°F  6 mph W  4 mph  20 mph  0.00"  16%  15%  36°F  34°F  30.15"
Sat 03:00 PM  88.6°F  90°F  5 mph SE  3 mph  16 mph  0.00"  16%  15%  35°F  34°F  30.17"
Sat 02:00 PM  88.5°F  89°F  1 mph N  3 mph  9 mph  0.00"  17%  15%  37°F  33°F  30.19"
Sat 01:00 PM  87.2°F  88°F  calm  2 mph  9 mph  0.00"  18%  15%  37°F  34°F  30.21"
Sat 12:00 PM  85.4°F  86°F  calm  2 mph  none  0.00"  19%  16%  37°F  34°F  30.22"
Sat 11:00 AM  81.7°F  84°F  calm  2 mph  none  0.00"  22%  18%  38°F  35°F  30.24"
Sat 10:00 AM  80.1°F  82°F  calm  2 mph  7 mph  0.00"  23%  21%  38°F  36°F  30.23"
Sat 09:00 AM  76.5°F  80°F  2 mph NW  2 mph  6 mph  0.00"  25%  23%  36°F  37°F  30.23"
Sat 08:00 AM  73.8°F  77°F  3 mph NE  2 mph  7 mph  0.00"  26%  25%  35°F  37°F  30.23"
Sat 07:00 AM  68.9°F  72°F  calm  1 mph  4 mph  0.00"  32%  29%  37°F  37°F  30.22"
Sat 06:00 AM  62.0°F  67°F  3 mph SW  2 mph  5 mph  0.00"  38%  31%  35°F  34°F  30.21"
Sat 05:00 AM  62.8°F  67°F  2 mph SW  2 mph  6 mph  0.00"  37%  32%  35°F  35°F  30.19"

  1. Current weather data. No green row appears if the current weather data is also the high or low for the current day.
  2. High temperature for the current day.
  3. Low temperature for the current day.

The Pinon Hills, California weather pages are a service of WeatherCurrents.
Copyright ©2020  WeatherCurrents. All rights reserved. - Submit questions and comments - Privacy Policy

This page automatically refreshes every 10 minutes.